Louisa, VA (23093)

9:57 AM EDT on July 30, 2016 (GMT -0400)
Louisa - Northside | | Change Station

Elev 371 ft 38.04 °N, 78.01 °W | Updated 0 second ago

Heavy Rain
Heavy Rain
73.0 °F
Feels Like 73.0 °F
N
1.0
Wind Variable Wind from SSE
Gusts 3.0 mph

Today
High -- | Low -- °F
--% Chance of Precip.
Yesterday
High -- | Low -- °F
Precip. -- in
Pressure 30.00 in
Visibility 7.0 miles
Clouds Scattered Clouds 1600 ft
Mostly Cloudy 3500 ft
Overcast 5500 ft
Dew Point 72 °F
Humidity 97%
Rainfall 0.18 in
Snow Depth Not available.
6:13 AM 8:22 PM
Waning Crescent, 13% visible
METAR KLKU 301335Z AUTO 00000KT 7SM +RA SCT016 BKN035 OVC055 26/24 A3000 RMK AO2 P0005
Pressure 30.00 in
Visibility 7.0 miles
Clouds Scattered Clouds 1600 ft
Mostly Cloudy 3500 ft
Overcast 5500 ft
Dew Point 72 °F
Humidity 97%
Rainfall 0.18 in
Snow Depth Not available.
6:13 AM 8:22 PM
Waning Crescent, 13% visible
METAR KLKU 301335Z AUTO 00000KT 7SM +RA SCT016 BKN035 OVC055 26/24 A3000 RMK AO2 P0005

10-Day Weather Forecast

Almanac

Astronomy

Jul. 30, 2016 Rise Set
Actual Time
Civil Twilight
Nautical Twilight
Astronomical Twilight
Moon
Length of Visible Light
Length of Day
Tomorrow will be .
, % of the Moon is Illuminated

Today's Extremes

State Highs State Lows

Community

WunderPhotos

Upload Photos

1,928,560 photos uploaded!

WunderBlog® & News

Nearby

Air Quality

  Air Quality AQ Index Pollutant
Not available.

Snow Depth

Station Depth Elevation

Earthquake Activity

City Distance Mag. Time & Date
Minimum magnitude displayed is 2.5.

Coastal Water Temperatures

Place Temperature

Stations

Nearby Weather Stations

Station Location Temp. Windchill Dew Point Humidity Wind Precip. Elev Updated Type
                   

Watches & Warnings

There are currently no watches in effect.